首页
METAR-TAF:

METAR-TAF

机场 :

馬斯卡廷, 艾奥瓦州, 美国

纬度: 41-22N, 经度: 091-09W, 海拔: 167米

当前天气观测

该预报发布于22分钟前的21:15 UTC
风速10节,风向东北
温度 21°C
湿度 88%
气压 1005 hPa
能見度: 12.9公里
少量云层高于1300英尺
少量云层高于6000英尺

METAR: KMUT 192115Z AUTO 04010KT 8SM FEW013 FEW060 21/19 A2968 RMK AO2

时间: 16:37 (21:37 UTC)


TAF: 丢失

超过4000个机场的气象观测和天气预报(METAR&TAF报告)。

可查询的气象台以黄色和红色小点在地图上表示。

将鼠标移到小点上方,可查看气象台名称。

然后点击查看天气观测和预报。

如需切换地图:点击带黑十字的绿色按钮放大地图;点击带横线的绿色按钮缩小地图;或者点击绿色箭头查看邻近地区的地图。


METAR-TAF: